< < Back
Terminal Aerodrome Forecast


Current Version              Previous Versions:   1  2  3  4  5  6  7  8  9  

Terminal Aerodrome Forecast

520
FTUS44 KMOB 030539
TAFPNS
TAF
KPNS 030539Z 0306/0406 28006KT P6SM FEW070 BKN250
     FM031800 18007KT P6SM VCSH SCT050 BKN150=



Latest METAR

098
SAUS70 KWBC 031000 RRI
MTRPNS
METAR KPNS 030953Z AUTO 29005KT 10SM CLR 26/23 A2997 RMK AO2 SLP148
T02610233 $


USA.gov is the U.S. government's official web portal to all federal, state and local government web resources and services.